sensor_id;sensor_type;location;lat;lon;timestamp;pressure;altitude;pressure_sealevel;temperature;humidity
70833;BME280;58452;59.418;17.962;2023-02-07T00:01:14;103332.09;;;-1.38;97.53
70833;BME280;58452;59.418;17.962;2023-02-07T00:03:41;103331.25;;;-1.42;98.27
70833;BME280;58452;59.418;17.962;2023-02-07T00:06:08;103332.94;;;-1.41;98.50
70833;BME280;58452;59.418;17.962;2023-02-07T00:08:35;103341.38;;;-1.36;99.28
70833;BME280;58452;59.418;17.962;2023-02-07T00:11:09;103341.38;;;-1.36;99.18
70833;BME280;58452;59.418;17.962;2023-02-07T00:13:35;103334.63;;;-1.34;98.91
70833;BME280;58452;59.418;17.962;2023-02-07T00:16:01;103344.75;;;-1.31;99.71
70833;BME280;58452;59.418;17.962;2023-02-07T00:18:26;103329.53;;;-1.31;99.67
70833;BME280;58452;59.418;17.962;2023-02-07T00:21:05;103333.75;;;-1.22;98.93
70833;BME280;58452;59.418;17.962;2023-02-07T00:23:31;103332.91;;;-1.26;99.00
70833;BME280;58452;59.418;17.962;2023-02-07T00:25:57;103338.84;;;-1.25;99.52
70833;BME280;58452;59.418;17.962;2023-02-07T00:28:22;103332.06;;;-1.26;99.57
70833;BME280;58452;59.418;17.962;2023-02-07T00:30:48;103339.66;;;-1.22;100.00
70833;BME280;58452;59.418;17.962;2023-02-07T00:33:14;103327.84;;;-1.20;99.79
70833;BME280;58452;59.418;17.962;2023-02-07T00:35:40;103330.38;;;-1.18;100.00
70833;BME280;58452;59.418;17.962;2023-02-07T00:38:05;103331.22;;;-1.15;100.00
70833;BME280;58452;59.418;17.962;2023-02-07T00:40:31;103321.06;;;-1.12;99.70
70833;BME280;58452;59.418;17.962;2023-02-07T00:42:56;103323.59;;;-1.09;100.00
70833;BME280;58452;59.418;17.962;2023-02-07T00:45:22;103322.75;;;-1.08;100.00
70833;BME280;58452;59.418;17.962;2023-02-07T00:47:47;103323.59;;;-1.04;99.99
70833;BME280;58452;59.418;17.962;2023-02-07T00:50:13;103321.03;;;-1.00;100.00
70833;BME280;58452;59.418;17.962;2023-02-07T00:52:38;103314.22;;;-0.91;100.00
70833;BME280;58452;59.418;17.962;2023-02-07T00:55:04;103314.22;;;-0.91;100.00
70833;BME280;58452;59.418;17.962;2023-02-07T00:57:29;103301.56;;;-0.88;99.18
70833;BME280;58452;59.418;17.962;2023-02-07T00:59:55;103302.38;;;-0.83;99.34
70833;BME280;58452;59.418;17.962;2023-02-07T01:02:20;103307.44;;;-0.83;100.00
70833;BME280;58452;59.418;17.962;2023-02-07T01:04:46;103304.91;;;-0.79;100.00
70833;BME280;58452;59.418;17.962;2023-02-07T01:07:11;103298.97;;;-0.76;99.36
70833;BME280;58452;59.418;17.962;2023-02-07T01:09:38;103298.94;;;-0.73;99.87
70833;BME280;58452;59.418;17.962;2023-02-07T01:12:04;103303.16;;;-0.69;99.28
70833;BME280;58452;59.418;17.962;2023-02-07T01:14:29;103295.53;;;-0.63;99.22
70833;BME280;58452;59.418;17.962;2023-02-07T01:16:55;103287.03;;;-0.55;99.51
70833;BME280;58452;59.418;17.962;2023-02-07T01:19:20;103285.31;;;-0.48;98.44
70833;BME280;58452;59.418;17.962;2023-02-07T01:21:46;103295.44;;;-0.45;98.49
70833;BME280;58452;59.418;17.962;2023-02-07T01:24:11;103289.44;;;-0.30;98.09
70833;BME280;58452;59.418;17.962;2023-02-07T01:26:37;103285.16;;;-0.24;98.29
70833;BME280;58452;59.418;17.962;2023-02-07T01:29:04;103277.44;;;-0.10;98.03
70833;BME280;58452;59.418;17.962;2023-02-07T01:31:31;103273.28;;;-0.16;97.18
70833;BME280;58452;59.418;17.962;2023-02-07T01:33:57;103264.88;;;-0.24;97.00
70833;BME280;58452;59.418;17.962;2023-02-07T01:36:26;103253.75;;;-0.09;97.34
70833;BME280;58452;59.418;17.962;2023-02-07T01:38:52;103252.78;;;0.04;96.36
70833;BME280;58452;59.418;17.962;2023-02-07T01:41:19;103256.16;;;0.11;95.70
70833;BME280;58452;59.418;17.962;2023-02-07T01:44:01;103247.66;;;0.15;95.85
70833;BME280;58452;59.418;17.962;2023-02-07T01:46:28;103246.75;;;0.22;95.49
70833;BME280;58452;59.418;17.962;2023-02-07T01:48:55;103242.47;;;0.24;95.17
70833;BME280;58452;59.418;17.962;2023-02-07T01:51:23;103245.81;;;0.27;94.21
70833;BME280;58452;59.418;17.962;2023-02-07T01:53:51;103238.47;;;-0.03;93.99
70833;BME280;58452;59.418;17.962;2023-02-07T01:56:18;103246.13;;;-0.11;95.61
70833;BME280;58452;59.418;17.962;2023-02-07T01:58:43;103241.13;;;-0.17;94.97
70833;BME280;58452;59.418;17.962;2023-02-07T02:01:15;103246.97;;;-0.04;95.15
70833;BME280;58452;59.418;17.962;2023-02-07T02:03:45;103242.56;;;0.12;95.26
70833;BME280;58452;59.418;17.962;2023-02-07T02:06:12;103244.28;;;0.10;94.69
70833;BME280;58452;59.418;17.962;2023-02-07T02:08:38;103238.38;;;0.11;94.59
70833;BME280;58452;59.418;17.962;2023-02-07T02:33:18;103229.09;;;0.07;93.99
70833;BME280;58452;59.418;17.962;2023-02-07T02:44:25;103222.44;;;-0.10;96.10
70833;BME280;58452;59.418;17.962;2023-02-07T02:46:54;103223.28;;;-0.06;95.78
70833;BME280;58452;59.418;17.962;2023-02-07T02:49:21;103218.19;;;-0.05;95.82
70833;BME280;58452;59.418;17.962;2023-02-07T02:51:50;103224.06;;;0.00;95.44
70833;BME280;58452;59.418;17.962;2023-02-07T02:59:44;103204.56;;;0.04;95.64
70833;BME280;58452;59.418;17.962;2023-02-07T03:08:03;103191.16;;;-0.09;97.06
70833;BME280;58452;59.418;17.962;2023-02-07T03:21:51;103186.03;;;-0.06;96.69
70833;BME280;58452;59.418;17.962;2023-02-07T03:24:36;103179.25;;;-0.01;97.14
70833;BME280;58452;59.418;17.962;2023-02-07T03:27:05;103183.53;;;-0.09;96.76
70833;BME280;58452;59.418;17.962;2023-02-07T03:29:35;103173.41;;;-0.15;97.62
70833;BME280;58452;59.418;17.962;2023-02-07T03:32:03;103171.63;;;-0.04;97.72
70833;BME280;58452;59.418;17.962;2023-02-07T03:34:38;103175.81;;;0.00;96.86
70833;BME280;58452;59.418;17.962;2023-02-07T03:37:07;103177.44;;;0.08;96.84
70833;BME280;58452;59.418;17.962;2023-02-07T03:39:34;103179.88;;;0.20;96.80
70833;BME280;58452;59.418;17.962;2023-02-07T03:42:05;103183.25;;;0.19;96.59
70833;BME280;58452;59.418;17.962;2023-02-07T03:44:33;103172.28;;;0.15;96.90
70833;BME280;58452;59.418;17.962;2023-02-07T03:47:00;103171.56;;;0.06;96.44
70833;BME280;58452;59.418;17.962;2023-02-07T03:49:25;103159.63;;;0.14;97.17
70833;BME280;58452;59.418;17.962;2023-02-07T03:51:51;103159.66;;;0.11;96.64
70833;BME280;58452;59.418;17.962;2023-02-07T03:54:16;103162.22;;;0.11;96.84
70833;BME280;58452;59.418;17.962;2023-02-07T03:56:43;103158.75;;;0.16;96.53
70833;BME280;58452;59.418;17.962;2023-02-07T03:59:08;103157.06;;;0.15;97.22
70833;BME280;58452;59.418;17.962;2023-02-07T04:01:34;103144.31;;;0.20;97.03
70833;BME280;58452;59.418;17.962;2023-02-07T04:04:06;103155.25;;;0.28;96.61
70833;BME280;58452;59.418;17.962;2023-02-07T04:06:32;103152.78;;;0.22;95.98
70833;BME280;58452;59.418;17.962;2023-02-07T04:08:57;103153.59;;;0.25;96.55
70833;BME280;58452;59.418;17.962;2023-02-07T04:11:23;103147.69;;;0.22;96.79
70833;BME280;58452;59.418;17.962;2023-02-07T04:13:48;103147.50;;;0.37;96.76
70833;BME280;58452;59.418;17.962;2023-02-07T04:16:14;103154.22;;;0.44;96.18
70833;BME280;58452;59.418;17.962;2023-02-07T04:18:39;103147.34;;;0.52;95.53
70833;BME280;58452;59.418;17.962;2023-02-07T04:21:06;103136.41;;;0.47;95.28
70833;BME280;58452;59.418;17.962;2023-02-07T04:23:33;103137.31;;;0.43;95.89
70833;BME280;58452;59.418;17.962;2023-02-07T04:25:59;103137.34;;;0.37;95.74
70833;BME280;58452;59.418;17.962;2023-02-07T04:28:24;103133.09;;;0.39;95.52
70833;BME280;58452;59.418;17.962;2023-02-07T04:30:50;103141.63;;;0.36;95.99
70833;BME280;58452;59.418;17.962;2023-02-07T04:33:15;103139.13;;;0.32;96.48
70833;BME280;58452;59.418;17.962;2023-02-07T04:35:41;103130.66;;;0.33;96.58
70833;BME280;58452;59.418;17.962;2023-02-07T04:38:07;103127.22;;;0.34;95.86
70833;BME280;58452;59.418;17.962;2023-02-07T04:40:32;103130.69;;;0.27;96.79
70833;BME280;58452;59.418;17.962;2023-02-07T04:42:57;103134.09;;;0.29;97.27
70833;BME280;58452;59.418;17.962;2023-02-07T04:45:23;103128.84;;;0.41;96.61
70833;BME280;58452;59.418;17.962;2023-02-07T04:47:49;103121.22;;;0.41;96.31
70833;BME280;58452;59.418;17.962;2023-02-07T04:50:15;103117.91;;;0.34;96.78
70833;BME280;58452;59.418;17.962;2023-02-07T04:52:40;103117.91;;;0.34;96.35
70833;BME280;58452;59.418;17.962;2023-02-07T04:55:07;103122.16;;;0.35;96.80
70833;BME280;58452;59.418;17.962;2023-02-07T04:57:33;103116.19;;;0.39;96.35
70833;BME280;58452;59.418;17.962;2023-02-07T04:59:58;103121.28;;;0.36;96.29
70833;BME280;58452;59.418;17.962;2023-02-07T05:02:24;103111.13;;;0.36;96.31
70833;BME280;58452;59.418;17.962;2023-02-07T05:04:49;103108.56;;;0.38;96.31
70833;BME280;58452;59.418;17.962;2023-02-07T05:07:15;103116.13;;;0.41;96.11
70833;BME280;58452;59.418;17.962;2023-02-07T05:09:40;103111.91;;;0.43;95.68
70833;BME280;58452;59.418;17.962;2023-02-07T05:12:06;103111.94;;;0.40;96.40
70833;BME280;58452;59.418;17.962;2023-02-07T05:14:31;103109.38;;;0.41;96.94
70833;BME280;58452;59.418;17.962;2023-02-07T05:16:57;103115.19;;;0.49;96.32
70833;BME280;58452;59.418;17.962;2023-02-07T05:19:22;103096.53;;;0.52;96.27
70833;BME280;58452;59.418;17.962;2023-02-07T05:21:48;103098.13;;;0.59;95.55
70833;BME280;58452;59.418;17.962;2023-02-07T05:24:13;103093.03;;;0.59;95.21
70833;BME280;58452;59.418;17.962;2023-02-07T05:26:39;103082.03;;;0.62;95.51
70833;BME280;58452;59.418;17.962;2023-02-07T05:29:04;103092.94;;;0.68;95.67
70833;BME280;58452;59.418;17.962;2023-02-07T05:31:29;103087.91;;;0.65;95.01
70833;BME280;58452;59.418;17.962;2023-02-07T05:34:13;103094.63;;;0.66;95.07
70833;BME280;58452;59.418;17.962;2023-02-07T05:36:39;103084.53;;;0.63;95.33
70833;BME280;58452;59.418;17.962;2023-02-07T05:39:05;103082.81;;;0.64;94.97
70833;BME280;58452;59.418;17.962;2023-02-07T05:41:30;103076.88;;;0.65;95.63
70833;BME280;58452;59.418;17.962;2023-02-07T05:43:56;103065.84;;;0.67;95.30
70833;BME280;58452;59.418;17.962;2023-02-07T05:46:21;103064.16;;;0.66;95.25
70833;BME280;58452;59.418;17.962;2023-02-07T05:48:47;103058.97;;;0.74;95.31
70833;BME280;58452;59.418;17.962;2023-02-07T05:51:13;103057.16;;;0.83;94.69
70833;BME280;58452;59.418;17.962;2023-02-07T05:53:38;103058.16;;;0.70;94.93
70833;BME280;58452;59.418;17.962;2023-02-07T05:56:04;103052.31;;;0.65;94.70
70833;BME280;58452;59.418;17.962;2023-02-07T05:58:30;103053.97;;;0.66;94.95
70833;BME280;58452;59.418;17.962;2023-02-07T06:00:55;103051.44;;;0.68;94.85
70833;BME280;58452;59.418;17.962;2023-02-07T06:03:20;103053.97;;;0.69;94.60
70833;BME280;58452;59.418;17.962;2023-02-07T06:05:46;103044.66;;;0.68;95.38
70833;BME280;58452;59.418;17.962;2023-02-07T06:08:11;103053.94;;;0.71;94.67
70833;BME280;58452;59.418;17.962;2023-02-07T06:10:37;103046.13;;;0.83;94.95
70833;BME280;58452;59.418;17.962;2023-02-07T06:13:02;103033.31;;;0.90;94.39
70833;BME280;58452;59.418;17.962;2023-02-07T06:15:28;103040.22;;;0.82;94.49
70833;BME280;58452;59.418;17.962;2023-02-07T06:17:53;103034.16;;;0.91;94.27
70833;BME280;58452;59.418;17.962;2023-02-07T06:20:19;103042.66;;;0.88;93.54
70833;BME280;58452;59.418;17.962;2023-02-07T06:22:44;103039.31;;;0.85;94.26
70833;BME280;58452;59.418;17.962;2023-02-07T06:25:10;103038.44;;;0.87;93.92
70833;BME280;58452;59.418;17.962;2023-02-07T06:27:37;103043.44;;;0.93;94.28
70833;BME280;58452;59.418;17.962;2023-02-07T06:30:03;103038.22;;;0.99;93.24
70833;BME280;58452;59.418;17.962;2023-02-07T06:32:29;103048.31;;;1.06;92.45
70833;BME280;58452;59.418;17.962;2023-02-07T06:34:54;103045.97;;;0.95;93.56
70833;BME280;58452;59.418;17.962;2023-02-07T06:37:20;103044.09;;;1.06;93.28
70833;BME280;58452;59.418;17.962;2023-02-07T06:39:45;103039.78;;;1.10;93.16
70833;BME280;58452;59.418;17.962;2023-02-07T06:42:11;103038.81;;;1.17;92.44
70833;BME280;58452;59.418;17.962;2023-02-07T06:44:36;103051.66;;;1.09;92.60
70833;BME280;58452;59.418;17.962;2023-02-07T06:47:01;103054.16;;;1.11;93.19
70833;BME280;58452;59.418;17.962;2023-02-07T06:49:28;103049.97;;;1.10;93.23
70833;BME280;58452;59.418;17.962;2023-02-07T06:51:53;103041.44;;;1.14;92.69
70833;BME280;58452;59.418;17.962;2023-02-07T06:54:19;103040.28;;;1.30;92.70
70833;BME280;58452;59.418;17.962;2023-02-07T06:56:44;103039.38;;;1.35;92.29
70833;BME280;58452;59.418;17.962;2023-02-07T06:59:10;103036.03;;;1.32;91.73
70833;BME280;58452;59.418;17.962;2023-02-07T07:01:36;103041.19;;;1.26;91.51
70833;BME280;58452;59.418;17.962;2023-02-07T07:04:01;103042.72;;;1.36;91.83
70833;BME280;58452;59.418;17.962;2023-02-07T07:06:26;103039.44;;;1.31;91.74
70833;BME280;58452;59.418;17.962;2023-02-07T07:08:52;103036.13;;;1.26;91.71
70833;BME280;58452;59.418;17.962;2023-02-07T07:11:17;103033.56;;;1.27;91.79
70833;BME280;58452;59.418;17.962;2023-02-07T07:13:43;103034.41;;;1.28;91.99
70833;BME280;58452;59.418;17.962;2023-02-07T07:16:09;103039.38;;;1.34;91.68
70833;BME280;58452;59.418;17.962;2023-02-07T07:18:34;103040.22;;;1.33;91.86
70833;BME280;58452;59.418;17.962;2023-02-07T07:21:02;103046.41;;;1.20;92.81
70833;BME280;58452;59.418;17.962;2023-02-07T07:23:28;103044.59;;;1.26;92.21
70833;BME280;58452;59.418;17.962;2023-02-07T07:25:53;103038.72;;;1.21;92.52
70833;BME280;58452;59.418;17.962;2023-02-07T07:28:18;103039.56;;;1.22;92.28
70833;BME280;58452;59.418;17.962;2023-02-07T07:30:44;103044.53;;;1.31;92.33
70833;BME280;58452;59.418;17.962;2023-02-07T07:33:09;103038.53;;;1.35;92.48
70833;BME280;58452;59.418;17.962;2023-02-07T07:35:35;103045.25;;;1.39;92.56
70833;BME280;58452;59.418;17.962;2023-02-07T07:38:00;103041.13;;;1.32;92.48
70833;BME280;58452;59.418;17.962;2023-02-07T07:40:26;103027.25;;;1.48;92.51
70833;BME280;58452;59.418;17.962;2023-02-07T07:42:51;103036.75;;;1.38;91.20
70833;BME280;58452;59.418;17.962;2023-02-07T07:45:16;103034.13;;;1.43;92.23
70833;BME280;58452;59.418;17.962;2023-02-07T07:47:42;103027.31;;;1.45;91.20
70833;BME280;58452;59.418;17.962;2023-02-07T07:50:07;103030.66;;;1.47;91.37
70833;BME280;58452;59.418;17.962;2023-02-07T07:52:33;103013.66;;;1.49;91.93
70833;BME280;58452;59.418;17.962;2023-02-07T07:54:59;103020.31;;;1.56;90.87
70833;BME280;58452;59.418;17.962;2023-02-07T07:57:24;103020.44;;;1.50;91.50
70833;BME280;58452;59.418;17.962;2023-02-07T07:59:55;103014.31;;;1.59;91.19
70833;BME280;58452;59.418;17.962;2023-02-07T08:02:21;103016.91;;;1.57;91.47
70833;BME280;58452;59.418;17.962;2023-02-07T08:04:48;103018.53;;;1.61;91.14
70833;BME280;58452;59.418;17.962;2023-02-07T08:07:14;103017.59;;;1.65;91.22
70833;BME280;58452;59.418;17.962;2023-02-07T08:09:39;103015.69;;;1.76;90.30
70833;BME280;58452;59.418;17.962;2023-02-07T08:12:05;103026.00;;;1.70;90.51
70833;BME280;58452;59.418;17.962;2023-02-07T08:14:30;103027.63;;;1.73;90.13
70833;BME280;58452;59.418;17.962;2023-02-07T08:16:56;103026.00;;;1.70;90.25
70833;BME280;58452;59.418;17.962;2023-02-07T08:19:22;103023.31;;;1.76;90.00
70833;BME280;58452;59.418;17.962;2023-02-07T08:21:47;103024.09;;;1.81;89.95
70833;BME280;58452;59.418;17.962;2023-02-07T08:24:13;103029.16;;;1.83;90.16
70833;BME280;58452;59.418;17.962;2023-02-07T08:26:38;103029.94;;;1.86;89.69
70833;BME280;58452;59.418;17.962;2023-02-07T08:29:04;103041.09;;;1.79;90.13
70833;BME280;58452;59.418;17.962;2023-02-07T08:31:29;103035.25;;;1.73;90.27
70833;BME280;58452;59.418;17.962;2023-02-07T08:33:54;103041.97;;;1.78;90.36
70833;BME280;58452;59.418;17.962;2023-02-07T08:36:20;103037.72;;;1.79;90.56
70833;BME280;58452;59.418;17.962;2023-02-07T08:38:46;103035.09;;;1.83;90.23
70833;BME280;58452;59.418;17.962;2023-02-07T08:41:11;103045.03;;;1.95;90.00
70833;BME280;58452;59.418;17.962;2023-02-07T08:43:36;103037.50;;;1.89;90.08
70833;BME280;58452;59.418;17.962;2023-02-07T08:46:03;103032.56;;;1.82;90.75
70833;BME280;58452;59.418;17.962;2023-02-07T08:48:29;103041.78;;;1.87;90.96
70833;BME280;58452;59.418;17.962;2023-02-07T08:50:55;103030.59;;;1.94;90.71
70833;BME280;58452;59.418;17.962;2023-02-07T08:53:20;103034.06;;;1.92;90.73
70833;BME280;58452;59.418;17.962;2023-02-07T08:55:46;103044.09;;;2.00;90.45
70833;BME280;58452;59.418;17.962;2023-02-07T08:58:12;103033.34;;;1.85;91.01
70833;BME280;58452;59.418;17.962;2023-02-07T09:00:38;103032.38;;;1.91;90.70
70833;BME280;58452;59.418;17.962;2023-02-07T09:03:04;103029.31;;;1.74;92.02
70833;BME280;58452;59.418;17.962;2023-02-07T09:05:30;103030.22;;;1.71;92.02
70833;BME280;58452;59.418;17.962;2023-02-07T09:08:01;103035.47;;;1.62;92.71
70833;BME280;58452;59.418;17.962;2023-02-07T09:10:26;103038.78;;;1.67;92.96
70833;BME280;58452;59.418;17.962;2023-02-07T09:12:52;103029.41;;;1.69;92.52
70833;BME280;58452;59.418;17.962;2023-02-07T09:15:17;103019.91;;;1.79;92.47
70833;BME280;58452;59.418;17.962;2023-02-07T09:17:43;103022.22;;;1.89;92.23
70833;BME280;58452;59.418;17.962;2023-02-07T09:20:10;103035.53;;;2.02;91.66
70833;BME280;58452;59.418;17.962;2023-02-07T09:22:35;103031.28;;;2.03;91.22
70833;BME280;58452;59.418;17.962;2023-02-07T09:25:21;103034.59;;;2.08;91.00
70833;BME280;58452;59.418;17.962;2023-02-07T09:27:46;103038.56;;;1.79;92.13
70833;BME280;58452;59.418;17.962;2023-02-07T09:30:12;103036.22;;;1.69;93.03
70833;BME280;58452;59.418;17.962;2023-02-07T09:32:37;103039.34;;;1.81;92.81
70833;BME280;58452;59.418;17.962;2023-02-07T09:35:03;103040.00;;;1.91;92.13
70833;BME280;58452;59.418;17.962;2023-02-07T09:37:29;103035.19;;;1.77;92.75
70833;BME280;58452;59.418;17.962;2023-02-07T09:39:55;103040.19;;;1.83;93.12
70833;BME280;58452;59.418;17.962;2023-02-07T09:42:58;103031.16;;;1.67;93.68
70833;BME280;58452;59.418;17.962;2023-02-07T09:45:18;103048.38;;;1.52;95.01
70833;BME280;58452;59.418;17.962;2023-02-07T09:47:48;103050.97;;;1.50;95.08
70833;BME280;58452;59.418;17.962;2023-02-07T09:50:29;103048.13;;;1.65;94.62
70833;BME280;58452;59.418;17.962;2023-02-07T09:53:00;103050.69;;;1.65;94.15
70833;BME280;58452;59.418;17.962;2023-02-07T10:01:13;103037.09;;;1.66;95.06
70833;BME280;58452;59.418;17.962;2023-02-07T10:03:54;103050.06;;;1.54;95.26
70833;BME280;58452;59.418;17.962;2023-02-07T10:06:26;103045.72;;;1.59;95.33
70833;BME280;58452;59.418;17.962;2023-02-07T10:08:56;103046.16;;;1.35;96.63
70833;BME280;58452;59.418;17.962;2023-02-07T10:11:44;103053.66;;;1.41;96.46
70833;BME280;58452;59.418;17.962;2023-02-07T10:27:52;103046.09;;;1.38;97.08
70833;BME280;58452;59.418;17.962;2023-02-07T10:30:33;103047.81;;;1.36;97.41
70833;BME280;58452;59.418;17.962;2023-02-07T10:33:21;103049.56;;;1.34;98.09
70833;BME280;58452;59.418;17.962;2023-02-07T10:35:48;103053.78;;;1.33;98.17
70833;BME280;58452;59.418;17.962;2023-02-07T10:38:29;103055.53;;;1.31;97.95
70833;BME280;58452;59.418;17.962;2023-02-07T10:43:32;103044.56;;;1.28;98.15
70833;BME280;58452;59.418;17.962;2023-02-07T10:46:02;103045.44;;;1.27;98.38
70833;BME280;58452;59.418;17.962;2023-02-07T10:48:28;103048.75;;;1.30;98.74
70833;BME280;58452;59.418;17.962;2023-02-07T10:50:54;103048.63;;;1.38;98.72
70833;BME280;58452;59.418;17.962;2023-02-07T10:53:49;103045.31;;;1.34;98.17
70833;BME280;58452;59.418;17.962;2023-02-07T10:56:17;103042.69;;;1.37;98.01
70833;BME280;58452;59.418;17.962;2023-02-07T10:58:44;103041.72;;;1.44;97.96
70833;BME280;58452;59.418;17.962;2023-02-07T11:01:18;103032.34;;;1.48;97.63
70833;BME280;58452;59.418;17.962;2023-02-07T11:03:44;103034.09;;;1.46;97.29
70833;BME280;58452;59.418;17.962;2023-02-07T11:06:13;103025.69;;;1.41;97.84
70833;BME280;58452;59.418;17.962;2023-02-07T11:08:39;103031.34;;;1.57;97.66
70833;BME280;58452;59.418;17.962;2023-02-07T11:11:28;103025.41;;;1.56;97.14
70833;BME280;58452;59.418;17.962;2023-02-07T11:14:01;103027.19;;;1.51;97.51
70833;BME280;58452;59.418;17.962;2023-02-07T11:16:27;103029.78;;;1.48;97.84
70833;BME280;58452;59.418;17.962;2023-02-07T11:19:01;103024.63;;;1.54;97.67
70833;BME280;58452;59.418;17.962;2023-02-07T11:21:34;103028.66;;;1.64;97.11
70833;BME280;58452;59.418;17.962;2023-02-07T11:24:06;103021.88;;;1.65;96.82
70833;BME280;58452;59.418;17.962;2023-02-07T11:26:34;103023.38;;;1.73;96.97
70833;BME280;58452;59.418;17.962;2023-02-07T11:29:14;103019.25;;;1.68;96.26
70833;BME280;58452;59.418;17.962;2023-02-07T11:31:43;103018.34;;;1.70;96.72
70833;BME280;58452;59.418;17.962;2023-02-07T11:45:23;103009.56;;;1.86;96.13
70833;BME280;58452;59.418;17.962;2023-02-07T11:47:53;103009.66;;;1.80;96.17
70833;BME280;58452;59.418;17.962;2023-02-07T11:50:24;103008.75;;;1.84;96.59
70833;BME280;58452;59.418;17.962;2023-02-07T11:52:54;103011.34;;;1.83;96.36
70833;BME280;58452;59.418;17.962;2023-02-07T11:55:23;103013.75;;;1.89;95.75
70833;BME280;58452;59.418;17.962;2023-02-07T11:57:49;103013.66;;;1.93;95.88
70833;BME280;58452;59.418;17.962;2023-02-07T12:03:01;103009.94;;;1.68;96.93
70833;BME280;58452;59.418;17.962;2023-02-07T12:05:32;103005.72;;;1.66;96.85
70833;BME280;58452;59.418;17.962;2023-02-07T12:08:03;102998.13;;;1.64;97.49
70833;BME280;58452;59.418;17.962;2023-02-07T12:10:35;102993.75;;;1.71;97.31
70833;BME280;58452;59.418;17.962;2023-02-07T12:13:23;102987.88;;;1.67;97.81
70833;BME280;58452;59.418;17.962;2023-02-07T12:15:57;102978.41;;;1.74;97.70
70833;BME280;58452;59.418;17.962;2023-02-07T12:18:32;102973.31;;;1.74;97.33
70833;BME280;58452;59.418;17.962;2023-02-07T12:23:57;102965.47;;;1.84;96.91
70833;BME280;58452;59.418;17.962;2023-02-07T12:26:48;102964.59;;;1.87;96.74
70833;BME280;58452;59.418;17.962;2023-02-07T12:32:17;102972.25;;;1.85;96.51
70833;BME280;58452;59.418;17.962;2023-02-07T12:40:31;102959.75;;;1.73;97.31
70833;BME280;58452;59.418;17.962;2023-02-07T12:43:06;102949.53;;;1.75;97.15
70833;BME280;58452;59.418;17.962;2023-02-07T13:11:12;102930.03;;;1.75;97.61
70833;BME280;58452;59.418;17.962;2023-02-07T13:24:59;102927.13;;;1.92;97.26
70833;BME280;58452;59.418;17.962;2023-02-07T13:27:26;102928.19;;;1.82;97.42
70833;BME280;58452;59.418;17.962;2023-02-07T13:29:53;102928.81;;;1.93;97.02
70833;BME280;58452;59.418;17.962;2023-02-07T13:32:22;102925.25;;;2.00;97.01
70833;BME280;58452;59.418;17.962;2023-02-07T13:35:05;102926.16;;;1.98;96.92
70833;BME280;58452;59.418;17.962;2023-02-07T13:43:30;102928.03;;;1.89;96.79
70833;BME280;58452;59.418;17.962;2023-02-07T13:46:18;102932.41;;;1.83;97.41
70833;BME280;58452;59.418;17.962;2023-02-07T13:57:36;102928.66;;;1.99;96.61
70833;BME280;58452;59.418;17.962;2023-02-07T14:00:26;102933.03;;;1.94;96.37
70833;BME280;58452;59.418;17.962;2023-02-07T14:02:59;102939.69;;;2.00;96.68
70833;BME280;58452;59.418;17.962;2023-02-07T14:15:57;102941.22;;;2.07;95.99
70833;BME280;58452;59.418;17.962;2023-02-07T14:18:45;102942.84;;;2.11;96.01
70833;BME280;58452;59.418;17.962;2023-02-07T14:31:49;102957.50;;;2.01;96.87
70833;BME280;58452;59.418;17.962;2023-02-07T14:34:18;102953.16;;;2.05;97.02
70833;BME280;58452;59.418;17.962;2023-02-07T14:36:47;102951.47;;;2.04;96.47
70833;BME280;58452;59.418;17.962;2023-02-07T14:41:40;102943.59;;;2.16;96.24
70833;BME280;58452;59.418;17.962;2023-02-07T14:44:21;102960.06;;;2.00;96.50
70833;BME280;58452;59.418;17.962;2023-02-07T14:46:51;102960.75;;;2.06;96.63
70833;BME280;58452;59.418;17.962;2023-02-07T14:49:36;102969.06;;;2.14;96.54
70833;BME280;58452;59.418;17.962;2023-02-07T14:52:06;102970.06;;;2.09;96.48
70833;BME280;58452;59.418;17.962;2023-02-07T14:57:21;102976.56;;;2.20;96.66
70833;BME280;58452;59.418;17.962;2023-02-07T15:00:00;102978.25;;;2.23;95.72
70833;BME280;58452;59.418;17.962;2023-02-07T15:02:35;102991.97;;;2.16;96.08
70833;BME280;58452;59.418;17.962;2023-02-07T15:05:29;102989.50;;;2.13;95.94
70833;BME280;58452;59.418;17.962;2023-02-07T15:08:07;102985.19;;;2.15;95.94
70833;BME280;58452;59.418;17.962;2023-02-07T15:18:24;102996.75;;;2.31;95.50
70833;BME280;58452;59.418;17.962;2023-02-07T15:20:55;102992.63;;;2.25;95.46
70833;BME280;58452;59.418;17.962;2023-02-07T15:23:22;102987.69;;;2.18;95.21
70833;BME280;58452;59.418;17.962;2023-02-07T15:25:48;102990.13;;;2.24;95.22
70833;BME280;58452;59.418;17.962;2023-02-07T15:28:26;102984.22;;;2.20;94.81
70833;BME280;58452;59.418;17.962;2023-02-07T15:33:50;102992.06;;;2.13;95.73
70833;BME280;58452;59.418;17.962;2023-02-07T15:36:36;102984.13;;;2.25;94.94
70833;BME280;58452;59.418;17.962;2023-02-07T15:39:21;102976.69;;;2.16;95.02
70833;BME280;58452;59.418;17.962;2023-02-07T15:41:50;102991.31;;;2.08;94.92
70833;BME280;58452;59.418;17.962;2023-02-07T15:44:30;102974.44;;;2.02;95.12
70833;BME280;58452;59.418;17.962;2023-02-07T15:49:38;102978.72;;;2.02;95.61
70833;BME280;58452;59.418;17.962;2023-02-07T15:52:23;102977.94;;;1.96;95.08
70833;BME280;58452;59.418;17.962;2023-02-07T15:54:51;102975.41;;;1.96;95.22
70833;BME280;58452;59.418;17.962;2023-02-07T15:57:24;102993.22;;;1.98;95.18
70833;BME280;58452;59.418;17.962;2023-02-07T15:59:52;102987.13;;;2.04;94.93
70833;BME280;58452;59.418;17.962;2023-02-07T16:02:34;102988.91;;;2.02;94.86
70833;BME280;58452;59.418;17.962;2023-02-07T16:05:18;102991.38;;;2.03;94.11
70833;BME280;58452;59.418;17.962;2023-02-07T16:07:46;102997.47;;;1.98;93.92